KPTB/PTB METAR and TAF weather

Enter ICAO airport designator
Station Type Date Time Source
KPTB METAR 2019/10/23 07:35 UTC NOAA

KPTB 230735Z AUTO 29004KT 1 1/4SM BR OVC003 14/13 A2993 RMK AO2 T01360127


Station Type Date Time Source
KPTB Decoded METAR 2019/10/23 07:35 UTC NOAA

Petersburg, Dinwiddie County Airport, VA, United States (KPTB) 37-11N 077-31W
Oct 23, 2019 - 03:35 AM EDT / 2019.10.23 0735 UTC
Wind: from the WNW (290 degrees) at 5 MPH (4 KT):0
Visibility: 1 1/4 mile(s):0
Sky conditions: overcast
Weather: mist
Temperature: 56.5 F (13.6 C)
Dew Point: 54.9 F (12.7 C)
Relative Humidity: 94%
Pressure (altimeter): 29.93 in. Hg (1013 hPa)
ob: KPTB 230735Z AUTO 29004KT 1 1/4SM BR OVC003 14/13 A2993 RMK AO2 T01360127
cycle: 7

Station Type Date Time Source
KPTB TAF UTC NOAA

Error!

Example: see airport list